createdAt,value
2022-12-25T00:00:20.492Z,100520.88
2022-12-25T00:05:22.776Z,100512.97
2022-12-25T00:10:25.961Z,100513.34
2022-12-25T00:15:27.824Z,100507.31
2022-12-25T00:20:29.664Z,100507.69
2022-12-25T00:25:31.274Z,100519.31
2022-12-25T00:30:32.979Z,100517.13
2022-12-25T00:35:34.575Z,100515.16
2022-12-25T00:40:45.250Z,100520.81
2022-12-25T00:46:01.692Z,100522.09
2022-12-25T00:51:06.301Z,100512.31
2022-12-25T00:56:08.250Z,100510.09
2022-12-25T01:01:11.156Z,100512.81
2022-12-25T01:06:13.197Z,100504.69
2022-12-25T01:11:14.816Z,100512.50
2022-12-25T01:16:16.560Z,100522.13
2022-12-25T01:21:21.462Z,100512.34
2022-12-25T01:26:25.255Z,100513.91
2022-12-25T01:31:27.018Z,100515.09
2022-12-25T01:36:28.727Z,100521.91
2022-12-25T01:41:30.391Z,100541.06
2022-12-25T01:46:32.497Z,100554.56
2022-12-25T01:51:45.323Z,100550.19
2022-12-25T01:56:48.344Z,100558.56
2022-12-25T02:01:50.100Z,100555.69
2022-12-25T02:06:52.305Z,100553.13
2022-12-25T02:11:56.727Z,100551.72
2022-12-25T02:17:18.428Z,100549.66
2022-12-25T02:22:28.432Z,100563.28
2022-12-25T02:27:52.645Z,100562.00
2022-12-25T02:33:19.511Z,100567.25
2022-12-25T02:38:25.398Z,100571.22
2022-12-25T02:43:50.957Z,100557.63
2022-12-25T02:49:13.655Z,100564.31
2022-12-25T02:54:37.330Z,100576.94
2022-12-25T02:59:59.566Z,100580.78
2022-12-25T03:05:23.280Z,100580.47
2022-12-25T03:10:43.529Z,100566.59
2022-12-25T03:16:05.874Z,100571.81
2022-12-25T03:21:26.633Z,100572.91
2022-12-25T03:26:46.899Z,100563.50
2022-12-25T03:31:56.338Z,100573.00
2022-12-25T03:37:34.530Z,100569.47
2022-12-25T03:42:55.305Z,100574.69
2022-12-25T03:48:16.066Z,100575.53
2022-12-25T03:54:01.484Z,100586.53
2022-12-25T03:59:24.179Z,100591.00
2022-12-25T04:04:44.700Z,100614.53
2022-12-25T04:10:04.867Z,100605.56
2022-12-25T04:15:25.323Z,100621.59
2022-12-25T04:20:45.627Z,100620.59
2022-12-25T04:26:05.925Z,100616.84
2022-12-25T04:31:25.873Z,100595.00
2022-12-25T04:36:27.522Z,100606.28
2022-12-25T04:41:29.151Z,100602.44
2022-12-25T04:46:30.843Z,100607.22
2022-12-25T04:51:32.512Z,100604.09
2022-12-25T04:56:35.645Z,100616.88
2022-12-25T05:01:40.430Z,100619.56
2022-12-25T05:06:42.800Z,100628.81
2022-12-25T05:11:44.455Z,100630.16
2022-12-25T05:16:46.087Z,100634.06
2022-12-25T05:21:47.756Z,100633.59
2022-12-25T05:26:49.360Z,100627.22
2022-12-25T05:31:51.126Z,100626.97
2022-12-25T05:36:52.859Z,100629.44
2022-12-25T05:41:54.474Z,100622.41
2022-12-25T05:46:56.250Z,100629.72
2022-12-25T05:51:58.008Z,100631.16
2022-12-25T05:56:59.654Z,100628.88
2022-12-25T06:02:01.420Z,100621.25
2022-12-25T06:07:03.127Z,100621.34
2022-12-25T06:12:04.858Z,100608.81
2022-12-25T06:17:06.665Z,100620.66
2022-12-25T06:22:08.373Z,100621.25
2022-12-25T06:27:10.149Z,100615.44
2022-12-25T06:32:12.396Z,100606.88
2022-12-25T06:37:14.094Z,100592.97
2022-12-25T06:42:15.777Z,100612.75
2022-12-25T06:47:17.951Z,100624.56
2022-12-25T06:52:19.543Z,100629.03
2022-12-25T06:57:21.157Z,100620.94
2022-12-25T07:02:24.040Z,100635.22
2022-12-25T07:07:25.828Z,100632.25
2022-12-25T07:12:27.631Z,100613.81
2022-12-25T07:17:29.268Z,100622.94
2022-12-25T07:22:30.918Z,100629.91
2022-12-25T07:27:32.587Z,100652.25
2022-12-25T07:32:34.309Z,100653.13
2022-12-25T07:37:35.967Z,100648.84
2022-12-25T07:42:37.654Z,100642.38
2022-12-25T07:47:39.781Z,100648.16
2022-12-25T07:52:43.696Z,100656.50
2022-12-25T07:57:45.585Z,100655.25
2022-12-25T08:02:50.395Z,100663.25
2022-12-25T08:07:57.661Z,100668.56
2022-12-25T08:12:59.790Z,100667.44
2022-12-25T08:18:01.394Z,100670.47
2022-12-25T08:23:03.606Z,100669.22
2022-12-25T08:28:05.267Z,100669.41
2022-12-25T08:33:07.665Z,100667.97
2022-12-25T08:38:09.388Z,100677.13
2022-12-25T08:43:11.120Z,100669.69
2022-12-25T08:48:12.994Z,100663.84
2022-12-25T08:53:15.729Z,100654.50
2022-12-25T08:58:17.733Z,100642.06
2022-12-25T09:03:19.608Z,100636.59
2022-12-25T09:08:24.322Z,100635.97
2022-12-25T09:13:26.016Z,100636.75
2022-12-25T09:18:27.683Z,100631.94
2022-12-25T09:23:29.585Z,100619.25
2022-12-25T09:28:31.254Z,100607.28
2022-12-25T09:33:33.129Z,100579.19
2022-12-25T09:38:35.564Z,100588.19
2022-12-25T09:43:40.065Z,100576.53
2022-12-25T09:48:47.519Z,100573.94
2022-12-25T09:53:55.255Z,100566.69
2022-12-25T09:58:57.158Z,100556.41
2022-12-25T10:04:15.352Z,100544.28
2022-12-25T10:09:23.008Z,100569.31
2022-12-25T10:14:48.329Z,100572.44
2022-12-25T10:20:09.771Z,100570.41
2022-12-25T10:25:17.239Z,100548.41
2022-12-25T10:30:24.168Z,100543.56
2022-12-25T10:35:26.743Z,100535.84
2022-12-25T10:40:34.959Z,100517.16
2022-12-25T10:45:44.611Z,100524.69
2022-12-25T10:50:46.324Z,100525.47
2022-12-25T10:56:05.410Z,100530.84
2022-12-25T11:01:07.171Z,100514.56
2022-12-25T11:06:25.780Z,100514.19
2022-12-25T11:11:28.132Z,100509.72
2022-12-25T11:16:32.982Z,100511.69
2022-12-25T11:21:38.112Z,100520.53
2022-12-25T11:26:51.288Z,100519.94
2022-12-25T11:31:54.865Z,100514.66
2022-12-25T11:36:58.240Z,100498.41
2022-12-25T11:42:05.984Z,100465.16
2022-12-25T11:47:45.739Z,100454.13
2022-12-25T11:52:47.870Z,100444.88
2022-12-25T11:57:54.391Z,100425.16
2022-12-25T12:03:00.559Z,100410.34
2022-12-25T12:08:03.382Z,100400.88
2022-12-25T12:13:24.368Z,100382.44
2022-12-25T12:18:26.018Z,100384.91
2022-12-25T12:23:28.925Z,100362.03
2022-12-25T12:28:42.483Z,100364.69
2022-12-25T12:33:50.828Z,100370.66
2022-12-25T12:38:53.427Z,100356.22
2022-12-25T12:44:00.355Z,100357.38
2022-12-25T12:49:16.917Z,100334.44
2022-12-25T12:54:22.732Z,100337.28
2022-12-25T12:59:25.486Z,100300.69
2022-12-25T13:04:52.404Z,100308.63
2022-12-25T13:10:13.526Z,100288.94
2022-12-25T13:15:15.266Z,100295.03
2022-12-25T13:20:55.239Z,100321.97
2022-12-25T13:25:59.299Z,100326.34
2022-12-25T13:31:21.955Z,100337.81
2022-12-25T13:36:24.854Z,100341.78
2022-12-25T13:41:49.372Z,100351.25
2022-12-25T13:46:51.059Z,100342.75
2022-12-25T13:51:52.811Z,100341.41
2022-12-25T13:56:55.128Z,100327.50
2022-12-25T14:01:57.891Z,100323.41
2022-12-25T14:07:09.721Z,100318.44
2022-12-25T14:12:15.833Z,100343.06
2022-12-25T14:17:21.859Z,100323.53
2022-12-25T14:22:24.119Z,100300.44
2022-12-25T14:27:30.535Z,100308.06
2022-12-25T14:32:39.637Z,100306.78
2022-12-25T14:37:42.155Z,100304.06
2022-12-25T14:42:55.096Z,100292.28
2022-12-25T14:47:59.729Z,100283.06
2022-12-25T14:53:01.500Z,100276.97
2022-12-25T14:58:05.880Z,100276.25
2022-12-25T15:03:18.670Z,100265.50
2022-12-25T15:08:22.826Z,100270.75
2022-12-25T15:13:25.490Z,100276.53
2022-12-25T15:18:31.758Z,100246.97
2022-12-25T15:23:33.448Z,100228.63
2022-12-25T15:28:35.063Z,100232.88
2022-12-25T15:33:42.229Z,100223.25
2022-12-25T15:38:45.800Z,100226.66
2022-12-25T15:43:47.949Z,100217.75
2022-12-25T15:48:49.604Z,100203.06
2022-12-25T15:53:51.554Z,100210.28
2022-12-25T15:58:53.193Z,100208.03
2022-12-25T16:03:54.871Z,100224.16
2022-12-25T16:08:56.605Z,100226.28
2022-12-25T16:13:58.252Z,100191.63
2022-12-25T16:18:59.878Z,100183.56
2022-12-25T16:24:01.538Z,100183.28
2022-12-25T16:29:07.263Z,100191.19
2022-12-25T16:34:09.610Z,100183.13
2022-12-25T16:39:12.313Z,100194.44
2022-12-25T16:44:15.090Z,100207.63
2022-12-25T16:49:16.720Z,100205.78
2022-12-25T16:54:18.364Z,100202.53
2022-12-25T16:59:20.055Z,100162.75
2022-12-25T17:04:21.685Z,100164.31
2022-12-25T17:09:23.421Z,100149.31
2022-12-25T17:14:25.333Z,100121.03
2022-12-25T17:19:26.995Z,100109.84
2022-12-25T17:24:29.021Z,100099.66
2022-12-25T17:29:31.973Z,100072.34
2022-12-25T17:34:33.785Z,100078.16
2022-12-25T17:39:35.534Z,100068.09
2022-12-25T17:44:37.493Z,100059.16
2022-12-25T17:49:39.174Z,100038.63
2022-12-25T17:54:40.868Z,100031.72
2022-12-25T17:59:42.482Z,100040.75
2022-12-25T18:04:44.151Z,100052.06
2022-12-25T18:09:45.793Z,100037.91
2022-12-25T18:14:47.413Z,100042.44
2022-12-25T18:19:50.915Z,100026.31
2022-12-25T18:24:52.659Z,100030.69
2022-12-25T18:29:54.326Z,100020.63
2022-12-25T18:34:56.055Z,100008.72
2022-12-25T18:39:57.665Z,100012.25
2022-12-25T18:44:59.354Z,100007.59
2022-12-25T18:50:01.225Z,100010.13
2022-12-25T18:55:03.076Z,100021.59
2022-12-25T19:00:05.116Z,100028.13
2022-12-25T19:05:07.037Z,100021.75
2022-12-25T19:10:10.316Z,100021.75
2022-12-25T19:15:11.975Z,100024.81
2022-12-25T19:20:13.675Z,100012.78
2022-12-25T19:25:15.346Z,100001.97
2022-12-25T19:30:18.251Z,99986.72
2022-12-25T19:35:19.907Z,99989.34
2022-12-25T19:40:22.620Z,99992.75
2022-12-25T19:45:24.369Z,99997.28
2022-12-25T19:50:28.545Z,100001.66
2022-12-25T19:55:32.094Z,99990.34
2022-12-25T20:00:33.787Z,99986.50
2022-12-25T20:05:35.455Z,99986.44
2022-12-25T20:10:42.899Z,99974.50
2022-12-25T20:15:44.798Z,99970.22
2022-12-25T20:20:46.480Z,99962.91
2022-12-25T20:25:48.118Z,99960.53
2022-12-25T20:30:49.732Z,99960.00
2022-12-25T20:35:51.634Z,99957.28
2022-12-25T20:41:29.023Z,99960.53
2022-12-25T20:46:31.637Z,99962.91
2022-12-25T20:51:34.531Z,99948.75
2022-12-25T20:56:36.703Z,99951.13
2022-12-25T21:01:38.593Z,99945.81
2022-12-25T21:06:40.315Z,99942.63
2022-12-25T21:11:41.973Z,99933.00
2022-12-25T21:16:44.801Z,99950.19
2022-12-25T21:21:49.873Z,99932.31
2022-12-25T21:26:51.717Z,99928.78
2022-12-25T21:32:12.925Z,99926.94
2022-12-25T21:37:14.551Z,99935.25
2022-12-25T21:42:16.878Z,99928.53
2022-12-25T21:47:18.706Z,99918.91
2022-12-25T21:52:20.367Z,99930.06
2022-12-25T21:57:22.005Z,99934.75
2022-12-25T22:02:23.777Z,99932.22
2022-12-25T22:07:25.484Z,99933.59
2022-12-25T22:12:45.521Z,99936.94
2022-12-25T22:18:05.776Z,99955.88
2022-12-25T22:23:08.787Z,99932.72
2022-12-25T22:28:10.381Z,99933.56
2022-12-25T22:33:12.870Z,99925.66
2022-12-25T22:38:14.488Z,99926.88
2022-12-25T22:43:16.136Z,99925.88
2022-12-25T22:48:18.022Z,99933.97
2022-12-25T22:53:20.134Z,99932.19
2022-12-25T22:58:21.922Z,99926.03
2022-12-25T23:03:23.690Z,99929.63
2022-12-25T23:08:25.639Z,99941.41
2022-12-25T23:13:45.821Z,99925.72
2022-12-25T23:19:05.900Z,99912.88
2022-12-25T23:24:28.142Z,99924.19
2022-12-25T23:29:39.308Z,99937.72
2022-12-25T23:34:43.306Z,99943.09
2022-12-25T23:39:45.006Z,99930.25
2022-12-25T23:44:46.692Z,99931.94
2022-12-25T23:49:48.705Z,99941.34
2022-12-25T23:54:50.353Z,99941.72
2022-12-25T23:59:52.144Z,99920.84
